Flight Track Log - Related Links

Times and Time Zones

All times are in EDT time to prevent confusion due to time zone crossing. See the JBU1329 flight status page for this flight to view local times or setup timezone preferences in your user account.

Time Position Orientation Groundspeed Altitude Reporting Facility
EDT Latitude Longitude Course Direction KTS MPH feet Rate Location/Type
Tue 08:33:54 42.3500 -71.0167 240° Southwest 144 166 900  Level KA90
Tue 08:36:14 42.3228 -70.8564 103° East 233 268 5,900 2,448 Climbing Boston Center
Tue 08:37:00 42.3130 -70.7193 172° South  Level FlightAware
Tue 08:37:15 42.3211 -70.7497 91° East 260 299 9,100  Level Boston Center
Tue 08:38:00 42.2482 -70.7944 228° Southwest  Level FlightAware
Tue 08:38:16 42.2456 -70.7208 164° South 220 253 10,100  Level Boston Center
Tue 08:39:00 42.1991 -70.8967 240° Southwest  Level FlightAware
Tue 08:39:13 42.1781 -70.7928 218° Southwest 215 247 12,100  Level Boston Center
Tue 08:40:15 42.1650 -70.9164 262° West 266 306 14,700 2,311 Climbing Boston Center
Tue 08:41:15 42.1497 -71.0286 260° West 319 367 16,800 2,077 Climbing Boston Center
Tue 08:42:25 42.1331 -71.2028 263° West 362 417 19,200 2,061 Climbing Boston Center
Tue 08:43:26 42.1178 -71.3400 262° West 374 430 21,300 1,884 Climbing Boston Center
Tue 08:44:26 42.1003 -71.4831 261° West 379 436 23,000 857 Climbing Boston Center
Tue 08:45:25 42.0806 -71.6094 258° West 379 436 23,000  Level Boston Center
Tue 08:46:37 42.0589 -71.7803 260° West 389 448 23,000  Level Boston Center
Tue 08:47:38 42.0408 -71.9203 260° West 389 448 23,000  Level Boston Center
Tue 08:48:40 42.0225 -72.0628 260° West 389 448 23,000  Level Boston Center
Tue 08:49:37 42.0042 -72.2028 260° West 389 448 23,000  Level Boston Center
Tue 08:50:37 41.9878 -72.3422 261° West 389 448 23,000  Level Boston Center
Tue 08:51:38 41.9689 -72.4792 260° West 389 448 23,000 942 Level Boston Center
Tue 08:52:38 41.9064 -72.5992 235° Southwest 383 441 24,900 1,686 Climbing Boston Center
Tue 08:53:39 41.8353 -72.7103 229° Southwest 383 441 26,400 1,513 Climbing Boston Center
Tue 08:54:37 41.7619 -72.8297 231° Southwest 404 465 27,900 1,373 Climbing Boston Center
Tue 08:55:37 41.6844 -72.9489 229° Southwest 424 488 29,100 1,475 Climbing Boston Center
Tue 08:56:39 41.6089 -73.0675 230° Southwest 429 494 30,900 1,426 Climbing Boston Center
Tue 08:57:39 41.5350 -73.1861 230° Southwest 424 488 32,000 559 Climbing Boston Center
Tue 08:58:37 41.4614 -73.3017 230° Southwest 424 488 32,000  Level Boston Center
Tue 08:59:38 41.3936 -73.4281 234° Southwest 424 488 32,000  Level Boston Center
Tue 09:01:24 41.3964 -73.6833 271° West 388 447 32,000  Level New Center
Tue 09:02:23 41.3308 -73.8047 234° Southwest 399 459 32,000  Level New Center
Tue 09:03:22 41.2386 -73.9083 220° Southwest 404 465 32,000  Level New Center
Tue 09:04:24 41.1464 -74.0114 220° Southwest 416 479 32,000  Level New Center
Tue 09:05:24 41.0539 -74.1114 219° Southwest 429 494 32,000 -202 Level New Center
Tue 09:06:23 40.9508 -74.2217 219° Southwest 435 501 31,600 -1,350 Descending New Center
Tue 09:07:24 40.8581 -74.3242 220° Southwest 440 506 29,300 -2,281 Descending New Center
Tue 09:08:24 40.7739 -74.4264 223° Southwest 435 501 27,000 -2,218 Descending New Center
Tue 09:09:23 40.7014 -74.5458 231° Southwest 418 481 24,900 -2,100 Descending New Center
Tue 09:10:24 40.6372 -74.6544 232° Southwest 407 468 22,800 -1,966 Descending New Center
Tue 09:11:22 40.5689 -74.7653 231° Southwest 395 455 21,000 -1,664 Descending New Center
Tue 09:12:23 40.5011 -74.8597 227° Southwest 383 441 19,500 -1,450 Descending New Center
Tue 09:13:22 40.4311 -74.9564 226° Southwest 373 429 18,100 -750 Descending New Center
Tue 09:14:23 40.3631 -75.0556 228° Southwest 368 423 18,000 -50 Descending New Center
Tue 09:15:23 40.2947 -75.1522 227° Southwest 368 423 18,000  Level New Center
Tue 09:16:23 40.2333 -75.2381 227° Southwest 368 423 18,000  Level New Center
Tue 09:17:24 40.1519 -75.3469 226° Southwest 373 429 18,000  Level New Center
Tue 09:18:22 40.0814 -75.4425 226° Southwest 373 429 18,000  Level New Center
Tue 09:19:23 40.0197 -75.5278 227° Southwest 373 429 18,000 -98 Level New Center
Tue 09:20:24 39.9444 -75.6336 227° Southwest 367 422 17,800 -689 Descending New Center
Tue 09:21:25 39.8906 -75.7247 232° Southwest 372 428 16,600 -1,257 Descending New Center
Tue 09:23:54 39.7500 -76.0000 236° Southwest 346 398 13,400 -1,292 Descending Potomac TRACON
Tue 09:24:54 39.7000 -76.1000 237° Southwest 338 389 12,100 -1,190 Descending Potomac TRACON
Tue 09:25:55 39.6500 -76.2000 237° Southwest 299 344 11,000 -1,240 Descending Potomac TRACON
Tue 09:26:55 39.6000 -76.2833 232° Southwest 275 316 9,600 -1,450 Descending Potomac TRACON
Tue 09:27:55 39.5833 -76.3667 255° West 267 307 8,100 -950 Descending Potomac TRACON
Tue 09:28:55 39.5667 -76.4667 258° West 260 299 7,700 -550 Descending Potomac TRACON
Tue 09:29:55 39.5500 -76.5500 255° West 252 290 7,000 -350 Descending Potomac TRACON
Tue 09:30:55 39.5500 -76.6333 270° West 210 242 7,000 -450 Level Potomac TRACON
Tue 09:31:55 39.5500 -76.7000 270° West 207 238 6,100 -1,000 Descending Potomac TRACON
Tue 09:32:49 39.5333 -76.7667 252° West 214 246 5,100 -1,053 Descending Potomac TRACON
Tue 09:33:49 39.4833 -76.8000 207° Southwest 195 224 4,100 -550 Descending Potomac TRACON
Tue 09:34:49 39.4500 -76.8500 229° Southwest 193 222 4,000 -50 Descending Potomac TRACON
Tue 09:35:50 39.4000 -76.9000 218° Southwest 192 221 4,000 -50 Level Potomac TRACON
Tue 09:36:50 39.3667 -76.9333 218° Southwest 192 221 3,900  Descending Potomac TRACON
Tue 09:37:44 39.3167 -76.9833 218° Southwest 199 229 4,000 53 Climbing Potomac TRACON
Tue 09:38:44 39.2667 -76.9833 180° South 181 208 4,000 -52 Level Potomac TRACON
Tue 09:39:39 39.2333 -76.9833 180° South 153 176 3,900 -574 Descending Potomac TRACON
Tue 09:40:39 39.2000 -76.9500 142° Southeast 174 200 2,900 -496 Descending Potomac TRACON
Tue 09:41:40 39.1667 -76.9167 142° Southeast 164 189 2,900 -446 Level Potomac TRACON
Tue 09:42:40 39.1833 -76.8500 72° East 193 222 2,000 -626 Descending Potomac TRACON
Tue 09:43:35 39.1833 -76.8000 90° East 152 175 1,700 -574 Descending Potomac TRACON
Tue 09:44:35 39.1833 -76.7500 90° East 141 162 900 -800 Descending Potomac TRACON

Login

Don't have an account? Register now (free) for customized features, flight alerts, and more!